sensor_id;sensor_type;location;lat;lon;timestamp;temperature;humidity
75442;DHT22;64019;48.312;14.226;2023-09-30T00:01:41;16.00;99.90
75442;DHT22;64019;48.312;14.226;2023-09-30T00:04:07;15.90;99.90
75442;DHT22;64019;48.312;14.226;2023-09-30T00:06:32;15.90;99.90
75442;DHT22;64019;48.312;14.226;2023-09-30T00:08:58;16.00;99.90
75442;DHT22;64019;48.312;14.226;2023-09-30T00:11:24;15.90;99.90
75442;DHT22;64019;48.312;14.226;2023-09-30T00:13:49;16.00;99.90
75442;DHT22;64019;48.312;14.226;2023-09-30T00:16:15;16.00;99.90
75442;DHT22;64019;48.312;14.226;2023-09-30T00:18:43;16.00;99.90
75442;DHT22;64019;48.312;14.226;2023-09-30T00:21:09;16.00;99.90
75442;DHT22;64019;48.312;14.226;2023-09-30T00:23:34;15.90;99.90
75442;DHT22;64019;48.312;14.226;2023-09-30T00:26:00;15.90;99.90
75442;DHT22;64019;48.312;14.226;2023-09-30T00:28:26;15.90;99.90
75442;DHT22;64019;48.312;14.226;2023-09-30T00:30:52;15.90;99.90
75442;DHT22;64019;48.312;14.226;2023-09-30T00:33:17;16.00;99.90
75442;DHT22;64019;48.312;14.226;2023-09-30T00:35:43;16.00;99.90
75442;DHT22;64019;48.312;14.226;2023-09-30T00:38:09;16.10;99.90
75442;DHT22;64019;48.312;14.226;2023-09-30T00:40:35;16.00;99.90
75442;DHT22;64019;48.312;14.226;2023-09-30T00:43:02;16.10;99.90
75442;DHT22;64019;48.312;14.226;2023-09-30T00:45:28;16.10;99.90
75442;DHT22;64019;48.312;14.226;2023-09-30T00:47:54;16.00;99.90
75442;DHT22;64019;48.312;14.226;2023-09-30T00:50:21;16.00;99.90
75442;DHT22;64019;48.312;14.226;2023-09-30T00:52:48;16.10;99.90
75442;DHT22;64019;48.312;14.226;2023-09-30T00:55:15;16.20;99.90
75442;DHT22;64019;48.312;14.226;2023-09-30T00:57:41;16.20;99.90
75442;DHT22;64019;48.312;14.226;2023-09-30T01:00:07;16.20;99.90
75442;DHT22;64019;48.312;14.226;2023-09-30T01:02:40;16.20;99.90
75442;DHT22;64019;48.312;14.226;2023-09-30T01:05:09;16.20;99.90
75442;DHT22;64019;48.312;14.226;2023-09-30T01:07:35;16.30;99.90
75442;DHT22;64019;48.312;14.226;2023-09-30T01:10:02;16.30;99.90
75442;DHT22;64019;48.312;14.226;2023-09-30T01:12:27;16.30;99.90
75442;DHT22;64019;48.312;14.226;2023-09-30T01:14:59;16.30;99.90
75442;DHT22;64019;48.312;14.226;2023-09-30T01:17:25;16.20;99.90
75442;DHT22;64019;48.312;14.226;2023-09-30T01:19:51;16.30;99.90
75442;DHT22;64019;48.312;14.226;2023-09-30T01:22:17;16.30;99.90
75442;DHT22;64019;48.312;14.226;2023-09-30T01:24:43;16.20;99.90
75442;DHT22;64019;48.312;14.226;2023-09-30T01:27:12;16.20;99.90
75442;DHT22;64019;48.312;14.226;2023-09-30T01:29:38;16.20;99.90
75442;DHT22;64019;48.312;14.226;2023-09-30T01:32:07;16.20;99.90
75442;DHT22;64019;48.312;14.226;2023-09-30T01:34:34;16.20;99.90
75442;DHT22;64019;48.312;14.226;2023-09-30T01:37:00;16.20;99.90
75442;DHT22;64019;48.312;14.226;2023-09-30T01:39:26;16.30;99.90
75442;DHT22;64019;48.312;14.226;2023-09-30T01:41:51;16.20;99.90
75442;DHT22;64019;48.312;14.226;2023-09-30T01:44:17;16.20;99.90
75442;DHT22;64019;48.312;14.226;2023-09-30T01:46:43;16.20;99.90
75442;DHT22;64019;48.312;14.226;2023-09-30T01:49:09;16.10;99.90
75442;DHT22;64019;48.312;14.226;2023-09-30T01:51:35;16.10;99.90
75442;DHT22;64019;48.312;14.226;2023-09-30T01:54:01;16.10;99.90
75442;DHT22;64019;48.312;14.226;2023-09-30T01:56:26;16.00;99.90
75442;DHT22;64019;48.312;14.226;2023-09-30T01:58:52;16.00;99.90
75442;DHT22;64019;48.312;14.226;2023-09-30T02:01:17;16.00;99.90
75442;DHT22;64019;48.312;14.226;2023-09-30T02:03:43;16.00;99.90
75442;DHT22;64019;48.312;14.226;2023-09-30T02:06:09;15.90;99.90
75442;DHT22;64019;48.312;14.226;2023-09-30T02:08:35;15.90;99.90
75442;DHT22;64019;48.312;14.226;2023-09-30T02:11:02;15.80;99.90
75442;DHT22;64019;48.312;14.226;2023-09-30T02:13:29;15.70;99.90
75442;DHT22;64019;48.312;14.226;2023-09-30T02:15:55;15.70;99.90
75442;DHT22;64019;48.312;14.226;2023-09-30T02:18:23;15.60;99.90
75442;DHT22;64019;48.312;14.226;2023-09-30T02:20:49;15.60;99.90
75442;DHT22;64019;48.312;14.226;2023-09-30T02:23:15;15.50;99.90
75442;DHT22;64019;48.312;14.226;2023-09-30T02:25:42;15.50;99.90
75442;DHT22;64019;48.312;14.226;2023-09-30T02:28:09;15.40;99.90
75442;DHT22;64019;48.312;14.226;2023-09-30T02:30:35;15.40;99.90
75442;DHT22;64019;48.312;14.226;2023-09-30T02:33:01;15.40;99.90
75442;DHT22;64019;48.312;14.226;2023-09-30T02:35:27;15.30;99.90
75442;DHT22;64019;48.312;14.226;2023-09-30T02:37:53;15.30;99.90
75442;DHT22;64019;48.312;14.226;2023-09-30T02:40:19;15.30;99.90
75442;DHT22;64019;48.312;14.226;2023-09-30T02:42:46;15.20;99.90
75442;DHT22;64019;48.312;14.226;2023-09-30T02:45:12;15.20;99.90
75442;DHT22;64019;48.312;14.226;2023-09-30T02:47:39;15.20;99.90
75442;DHT22;64019;48.312;14.226;2023-09-30T02:50:06;15.20;99.90
75442;DHT22;64019;48.312;14.226;2023-09-30T02:52:34;15.20;99.90
75442;DHT22;64019;48.312;14.226;2023-09-30T02:54:59;15.20;99.90
75442;DHT22;64019;48.312;14.226;2023-09-30T02:57:25;15.10;99.90
75442;DHT22;64019;48.312;14.226;2023-09-30T02:59:53;15.10;99.90
75442;DHT22;64019;48.312;14.226;2023-09-30T03:02:19;15.10;99.90
75442;DHT22;64019;48.312;14.226;2023-09-30T03:04:46;15.10;99.90
75442;DHT22;64019;48.312;14.226;2023-09-30T03:07:13;15.00;99.90
75442;DHT22;64019;48.312;14.226;2023-09-30T03:09:39;15.00;99.90
75442;DHT22;64019;48.312;14.226;2023-09-30T03:12:05;15.00;99.90
75442;DHT22;64019;48.312;14.226;2023-09-30T03:14:31;15.00;99.90
75442;DHT22;64019;48.312;14.226;2023-09-30T03:16:58;15.00;99.90
75442;DHT22;64019;48.312;14.226;2023-09-30T03:19:24;15.00;99.90
75442;DHT22;64019;48.312;14.226;2023-09-30T03:21:50;15.00;99.90
75442;DHT22;64019;48.312;14.226;2023-09-30T03:24:15;15.00;99.90
75442;DHT22;64019;48.312;14.226;2023-09-30T03:26:42;15.00;99.90
75442;DHT22;64019;48.312;14.226;2023-09-30T03:29:08;15.00;99.90
75442;DHT22;64019;48.312;14.226;2023-09-30T03:31:37;15.10;99.90
75442;DHT22;64019;48.312;14.226;2023-09-30T03:34:03;15.10;99.90
75442;DHT22;64019;48.312;14.226;2023-09-30T03:36:29;15.10;99.90
75442;DHT22;64019;48.312;14.226;2023-09-30T03:38:57;15.10;99.90
75442;DHT22;64019;48.312;14.226;2023-09-30T03:41:30;15.10;99.90
75442;DHT22;64019;48.312;14.226;2023-09-30T03:43:56;15.10;99.90
75442;DHT22;64019;48.312;14.226;2023-09-30T03:46:22;15.10;99.90
75442;DHT22;64019;48.312;14.226;2023-09-30T03:48:48;15.10;99.90
75442;DHT22;64019;48.312;14.226;2023-09-30T03:51:14;15.00;99.90
75442;DHT22;64019;48.312;14.226;2023-09-30T03:53:41;15.00;99.90
75442;DHT22;64019;48.312;14.226;2023-09-30T03:56:07;15.00;99.90
75442;DHT22;64019;48.312;14.226;2023-09-30T03:58:33;15.00;99.90
75442;DHT22;64019;48.312;14.226;2023-09-30T04:00:59;15.00;99.90
75442;DHT22;64019;48.312;14.226;2023-09-30T04:03:26;14.90;99.90
75442;DHT22;64019;48.312;14.226;2023-09-30T04:05:53;14.90;99.90
75442;DHT22;64019;48.312;14.226;2023-09-30T04:08:19;14.90;99.90
75442;DHT22;64019;48.312;14.226;2023-09-30T04:10:44;14.90;99.90
75442;DHT22;64019;48.312;14.226;2023-09-30T04:13:10;14.90;99.90
75442;DHT22;64019;48.312;14.226;2023-09-30T04:15:37;14.90;99.90
75442;DHT22;64019;48.312;14.226;2023-09-30T04:18:04;14.90;99.90
75442;DHT22;64019;48.312;14.226;2023-09-30T04:20:30;15.00;99.90
75442;DHT22;64019;48.312;14.226;2023-09-30T04:22:56;15.00;99.90
75442;DHT22;64019;48.312;14.226;2023-09-30T04:25:23;15.00;99.90
75442;DHT22;64019;48.312;14.226;2023-09-30T04:27:50;15.10;99.90
75442;DHT22;64019;48.312;14.226;2023-09-30T04:30:16;15.00;99.90
75442;DHT22;64019;48.312;14.226;2023-09-30T04:32:42;15.00;99.90
75442;DHT22;64019;48.312;14.226;2023-09-30T04:35:08;15.10;99.90
75442;DHT22;64019;48.312;14.226;2023-09-30T04:37:34;15.10;99.90
75442;DHT22;64019;48.312;14.226;2023-09-30T04:40:04;15.00;99.90
75442;DHT22;64019;48.312;14.226;2023-09-30T04:42:33;15.10;99.90
75442;DHT22;64019;48.312;14.226;2023-09-30T04:44:59;15.00;99.90
75442;DHT22;64019;48.312;14.226;2023-09-30T04:47:25;15.00;99.90
75442;DHT22;64019;48.312;14.226;2023-09-30T04:49:51;15.00;99.90
75442;DHT22;64019;48.312;14.226;2023-09-30T04:52:17;15.00;99.90
75442;DHT22;64019;48.312;14.226;2023-09-30T04:54:42;15.00;99.90
75442;DHT22;64019;48.312;14.226;2023-09-30T04:57:10;15.10;99.90
75442;DHT22;64019;48.312;14.226;2023-09-30T04:59:36;15.10;99.90
75442;DHT22;64019;48.312;14.226;2023-09-30T05:02:01;15.10;99.90
75442;DHT22;64019;48.312;14.226;2023-09-30T05:04:27;15.20;99.90
75442;DHT22;64019;48.312;14.226;2023-09-30T05:06:52;15.20;99.90
75442;DHT22;64019;48.312;14.226;2023-09-30T05:09:18;15.20;99.90
75442;DHT22;64019;48.312;14.226;2023-09-30T05:11:44;15.20;99.90
75442;DHT22;64019;48.312;14.226;2023-09-30T05:14:09;15.20;99.90
75442;DHT22;64019;48.312;14.226;2023-09-30T05:16:35;15.20;99.90
75442;DHT22;64019;48.312;14.226;2023-09-30T05:19:02;15.20;99.90
75442;DHT22;64019;48.312;14.226;2023-09-30T05:21:29;15.20;99.90
75442;DHT22;64019;48.312;14.226;2023-09-30T05:23:54;15.30;99.90
75442;DHT22;64019;48.312;14.226;2023-09-30T05:26:22;15.30;99.90
75442;DHT22;64019;48.312;14.226;2023-09-30T05:28:47;15.30;99.90
75442;DHT22;64019;48.312;14.226;2023-09-30T05:31:13;15.30;99.90
75442;DHT22;64019;48.312;14.226;2023-09-30T05:33:38;15.30;99.90
75442;DHT22;64019;48.312;14.226;2023-09-30T05:36:04;15.30;99.90
75442;DHT22;64019;48.312;14.226;2023-09-30T05:38:30;15.30;99.90
75442;DHT22;64019;48.312;14.226;2023-09-30T05:40:57;15.30;99.90
75442;DHT22;64019;48.312;14.226;2023-09-30T05:43:24;15.30;99.90
75442;DHT22;64019;48.312;14.226;2023-09-30T05:45:50;15.40;99.90
75442;DHT22;64019;48.312;14.226;2023-09-30T05:48:20;15.40;99.90
75442;DHT22;64019;48.312;14.226;2023-09-30T05:50:46;15.40;99.90
75442;DHT22;64019;48.312;14.226;2023-09-30T05:53:12;15.50;99.90
75442;DHT22;64019;48.312;14.226;2023-09-30T05:55:39;15.50;99.90
75442;DHT22;64019;48.312;14.226;2023-09-30T05:58:07;15.60;99.90
75442;DHT22;64019;48.312;14.226;2023-09-30T06:00:33;15.60;99.90
75442;DHT22;64019;48.312;14.226;2023-09-30T06:03:01;15.70;99.90
75442;DHT22;64019;48.312;14.226;2023-09-30T06:05:29;15.70;99.90
75442;DHT22;64019;48.312;14.226;2023-09-30T06:07:56;15.70;99.90
75442;DHT22;64019;48.312;14.226;2023-09-30T06:10:22;15.70;99.90
75442;DHT22;64019;48.312;14.226;2023-09-30T06:12:49;15.80;99.90
75442;DHT22;64019;48.312;14.226;2023-09-30T06:15:20;15.80;99.90
75442;DHT22;64019;48.312;14.226;2023-09-30T06:17:49;15.70;99.90
75442;DHT22;64019;48.312;14.226;2023-09-30T06:20:17;15.80;99.90
75442;DHT22;64019;48.312;14.226;2023-09-30T06:22:44;15.90;99.90
75442;DHT22;64019;48.312;14.226;2023-09-30T06:25:15;16.00;99.90
75442;DHT22;64019;48.312;14.226;2023-09-30T06:27:44;16.00;99.90
75442;DHT22;64019;48.312;14.226;2023-09-30T06:30:11;16.10;99.90
75442;DHT22;64019;48.312;14.226;2023-09-30T06:32:37;16.10;99.90
75442;DHT22;64019;48.312;14.226;2023-09-30T06:35:04;16.20;99.90
75442;DHT22;64019;48.312;14.226;2023-09-30T06:37:32;16.20;99.90
75442;DHT22;64019;48.312;14.226;2023-09-30T06:39:57;16.30;99.90
75442;DHT22;64019;48.312;14.226;2023-09-30T06:42:24;16.30;99.90
75442;DHT22;64019;48.312;14.226;2023-09-30T06:44:50;16.40;99.90
75442;DHT22;64019;48.312;14.226;2023-09-30T06:47:16;16.40;99.90
75442;DHT22;64019;48.312;14.226;2023-09-30T06:49:41;16.40;99.90
75442;DHT22;64019;48.312;14.226;2023-09-30T06:52:07;16.50;99.90
75442;DHT22;64019;48.312;14.226;2023-09-30T06:54:33;16.70;99.90
75442;DHT22;64019;48.312;14.226;2023-09-30T06:56:59;16.90;99.90
75442;DHT22;64019;48.312;14.226;2023-09-30T06:59:25;17.10;99.90
75442;DHT22;64019;48.312;14.226;2023-09-30T07:01:51;17.10;99.90
75442;DHT22;64019;48.312;14.226;2023-09-30T07:04:17;17.20;99.90
75442;DHT22;64019;48.312;14.226;2023-09-30T07:06:43;17.30;99.90
75442;DHT22;64019;48.312;14.226;2023-09-30T07:09:08;17.30;99.90
75442;DHT22;64019;48.312;14.226;2023-09-30T07:11:35;17.50;99.90
75442;DHT22;64019;48.312;14.226;2023-09-30T07:14:02;17.50;99.90
75442;DHT22;64019;48.312;14.226;2023-09-30T07:16:27;17.50;99.90
75442;DHT22;64019;48.312;14.226;2023-09-30T07:18:53;17.50;99.90
75442;DHT22;64019;48.312;14.226;2023-09-30T07:21:19;17.40;99.90
75442;DHT22;64019;48.312;14.226;2023-09-30T07:23:45;17.30;99.90
75442;DHT22;64019;48.312;14.226;2023-09-30T07:26:10;17.20;99.90
75442;DHT22;64019;48.312;14.226;2023-09-30T07:28:36;17.20;99.90
75442;DHT22;64019;48.312;14.226;2023-09-30T07:31:02;17.20;99.90
75442;DHT22;64019;48.312;14.226;2023-09-30T07:33:28;17.20;99.90
75442;DHT22;64019;48.312;14.226;2023-09-30T07:35:55;17.20;99.90
75442;DHT22;64019;48.312;14.226;2023-09-30T07:38:21;17.20;99.90
75442;DHT22;64019;48.312;14.226;2023-09-30T07:40:47;17.20;99.90
75442;DHT22;64019;48.312;14.226;2023-09-30T07:43:14;17.30;99.90
75442;DHT22;64019;48.312;14.226;2023-09-30T07:45:40;17.40;99.90
75442;DHT22;64019;48.312;14.226;2023-09-30T07:48:07;17.50;99.90
75442;DHT22;64019;48.312;14.226;2023-09-30T07:50:37;17.50;99.90
75442;DHT22;64019;48.312;14.226;2023-09-30T07:53:06;17.60;99.90
75442;DHT22;64019;48.312;14.226;2023-09-30T07:55:32;17.60;99.90
75442;DHT22;64019;48.312;14.226;2023-09-30T07:57:57;17.60;99.90
75442;DHT22;64019;48.312;14.226;2023-09-30T08:00:24;17.70;99.90
75442;DHT22;64019;48.312;14.226;2023-09-30T08:02:50;17.70;99.90
75442;DHT22;64019;48.312;14.226;2023-09-30T08:05:16;17.80;99.90
75442;DHT22;64019;48.312;14.226;2023-09-30T08:07:42;18.00;99.90
75442;DHT22;64019;48.312;14.226;2023-09-30T08:10:08;18.10;99.90
75442;DHT22;64019;48.312;14.226;2023-09-30T08:12:39;18.20;99.90
75442;DHT22;64019;48.312;14.226;2023-09-30T08:15:05;18.40;99.90
75442;DHT22;64019;48.312;14.226;2023-09-30T08:17:31;18.60;99.90
75442;DHT22;64019;48.312;14.226;2023-09-30T08:19:57;18.50;99.90
75442;DHT22;64019;48.312;14.226;2023-09-30T08:22:23;18.60;99.90
75442;DHT22;64019;48.312;14.226;2023-09-30T08:24:53;18.70;99.90
75442;DHT22;64019;48.312;14.226;2023-09-30T08:27:19;18.70;99.90
75442;DHT22;64019;48.312;14.226;2023-09-30T08:29:44;18.70;99.90
75442;DHT22;64019;48.312;14.226;2023-09-30T08:32:10;18.70;99.90
75442;DHT22;64019;48.312;14.226;2023-09-30T08:34:36;18.60;99.90
75442;DHT22;64019;48.312;14.226;2023-09-30T08:37:01;18.50;99.90
75442;DHT22;64019;48.312;14.226;2023-09-30T08:39:27;18.60;99.90
75442;DHT22;64019;48.312;14.226;2023-09-30T08:41:55;18.70;99.90
75442;DHT22;64019;48.312;14.226;2023-09-30T08:44:21;18.80;99.90
75442;DHT22;64019;48.312;14.226;2023-09-30T08:46:47;18.90;99.90
75442;DHT22;64019;48.312;14.226;2023-09-30T08:49:14;18.90;99.90
75442;DHT22;64019;48.312;14.226;2023-09-30T08:51:40;18.80;99.90
75442;DHT22;64019;48.312;14.226;2023-09-30T08:54:06;18.90;99.90
75442;DHT22;64019;48.312;14.226;2023-09-30T08:56:32;18.90;99.90
75442;DHT22;64019;48.312;14.226;2023-09-30T08:59:01;18.90;99.90
75442;DHT22;64019;48.312;14.226;2023-09-30T09:01:28;19.00;99.90
75442;DHT22;64019;48.312;14.226;2023-09-30T09:03:55;19.10;99.90
75442;DHT22;64019;48.312;14.226;2023-09-30T09:06:21;19.20;99.90
75442;DHT22;64019;48.312;14.226;2023-09-30T09:08:48;19.30;99.90
75442;DHT22;64019;48.312;14.226;2023-09-30T09:11:14;19.30;99.90
75442;DHT22;64019;48.312;14.226;2023-09-30T09:13:53;19.40;99.90
75442;DHT22;64019;48.312;14.226;2023-09-30T09:16:22;19.40;99.90
75442;DHT22;64019;48.312;14.226;2023-09-30T09:18:49;19.40;99.90
75442;DHT22;64019;48.312;14.226;2023-09-30T09:21:20;19.40;99.90
75442;DHT22;64019;48.312;14.226;2023-09-30T09:23:48;19.40;99.90
75442;DHT22;64019;48.312;14.226;2023-09-30T09:26:28;19.40;99.90
75442;DHT22;64019;48.312;14.226;2023-09-30T09:28:59;19.50;99.90
75442;DHT22;64019;48.312;14.226;2023-09-30T09:31:29;19.50;99.90
75442;DHT22;64019;48.312;14.226;2023-09-30T09:33:55;19.50;99.90
75442;DHT22;64019;48.312;14.226;2023-09-30T09:36:22;19.50;99.90
75442;DHT22;64019;48.312;14.226;2023-09-30T09:39:03;19.50;99.90
75442;DHT22;64019;48.312;14.226;2023-09-30T09:41:29;19.40;99.90
75442;DHT22;64019;48.312;14.226;2023-09-30T09:43:55;19.40;99.90
75442;DHT22;64019;48.312;14.226;2023-09-30T09:46:24;19.60;99.90
75442;DHT22;64019;48.312;14.226;2023-09-30T09:48:52;19.70;99.90
75442;DHT22;64019;48.312;14.226;2023-09-30T09:51:20;19.80;99.90
75442;DHT22;64019;48.312;14.226;2023-09-30T09:53:46;19.80;99.90
75442;DHT22;64019;48.312;14.226;2023-09-30T09:56:15;19.90;99.90
75442;DHT22;64019;48.312;14.226;2023-09-30T09:58:42;20.00;99.90
75442;DHT22;64019;48.312;14.226;2023-09-30T10:01:09;20.00;99.90
75442;DHT22;64019;48.312;14.226;2023-09-30T10:03:38;20.10;99.90
75442;DHT22;64019;48.312;14.226;2023-09-30T10:06:04;20.00;99.90
75442;DHT22;64019;48.312;14.226;2023-09-30T10:08:42;20.00;99.90
75442;DHT22;64019;48.312;14.226;2023-09-30T10:11:17;20.00;99.90
75442;DHT22;64019;48.312;14.226;2023-09-30T10:13:53;20.00;99.90
75442;DHT22;64019;48.312;14.226;2023-09-30T10:19:08;20.20;99.90
75442;DHT22;64019;48.312;14.226;2023-09-30T10:21:34;20.30;99.90
75442;DHT22;64019;48.312;14.226;2023-09-30T10:35:42;20.40;99.90
75442;DHT22;64019;48.312;14.226;2023-09-30T10:40:53;20.60;99.90
75442;DHT22;64019;48.312;14.226;2023-09-30T10:43:51;20.70;99.90
75442;DHT22;64019;48.312;14.226;2023-09-30T10:48:51;20.70;99.90
75442;DHT22;64019;48.312;14.226;2023-09-30T10:51:18;20.70;99.90
75442;DHT22;64019;48.312;14.226;2023-09-30T10:53:53;20.60;99.90
75442;DHT22;64019;48.312;14.226;2023-09-30T10:56:23;20.60;99.90
75442;DHT22;64019;48.312;14.226;2023-09-30T10:58:51;20.50;99.90
75442;DHT22;64019;48.312;14.226;2023-09-30T11:01:22;20.40;99.90
75442;DHT22;64019;48.312;14.226;2023-09-30T11:03:49;20.30;99.90
75442;DHT22;64019;48.312;14.226;2023-09-30T11:06:18;20.30;99.90
75442;DHT22;64019;48.312;14.226;2023-09-30T11:08:58;20.20;99.90
75442;DHT22;64019;48.312;14.226;2023-09-30T11:11:36;20.20;99.90
75442;DHT22;64019;48.312;14.226;2023-09-30T11:14:03;20.10;99.90
75442;DHT22;64019;48.312;14.226;2023-09-30T11:16:41;20.20;99.90
75442;DHT22;64019;48.312;14.226;2023-09-30T11:19:06;20.20;99.90
75442;DHT22;64019;48.312;14.226;2023-09-30T11:21:34;20.20;99.90
75442;DHT22;64019;48.312;14.226;2023-09-30T11:24:01;20.20;99.90
75442;DHT22;64019;48.312;14.226;2023-09-30T11:26:30;20.20;99.90
75442;DHT22;64019;48.312;14.226;2023-09-30T11:29:28;20.10;99.90
75442;DHT22;64019;48.312;14.226;2023-09-30T11:31:53;20.00;99.90
75442;DHT22;64019;48.312;14.226;2023-09-30T11:34:34;20.00;99.90
75442;DHT22;64019;48.312;14.226;2023-09-30T11:37:02;20.10;99.90
75442;DHT22;64019;48.312;14.226;2023-09-30T11:39:29;20.20;99.90
75442;DHT22;64019;48.312;14.226;2023-09-30T11:41:56;20.20;99.90
75442;DHT22;64019;48.312;14.226;2023-09-30T11:44:25;20.30;99.90
75442;DHT22;64019;48.312;14.226;2023-09-30T11:46:59;20.30;99.90
75442;DHT22;64019;48.312;14.226;2023-09-30T11:49:27;20.40;99.90
75442;DHT22;64019;48.312;14.226;2023-09-30T11:51:53;20.50;99.90
75442;DHT22;64019;48.312;14.226;2023-09-30T11:54:19;20.50;99.90
75442;DHT22;64019;48.312;14.226;2023-09-30T11:56:45;20.50;99.90
75442;DHT22;64019;48.312;14.226;2023-09-30T11:59:13;20.60;99.90
75442;DHT22;64019;48.312;14.226;2023-09-30T12:01:38;20.60;99.90
75442;DHT22;64019;48.312;14.226;2023-09-30T12:04:04;20.60;99.90
75442;DHT22;64019;48.312;14.226;2023-09-30T12:06:30;20.60;99.90
75442;DHT22;64019;48.312;14.226;2023-09-30T12:08:56;20.70;99.90
75442;DHT22;64019;48.312;14.226;2023-09-30T12:11:22;20.70;99.90
75442;DHT22;64019;48.312;14.226;2023-09-30T12:13:49;20.80;99.90
75442;DHT22;64019;48.312;14.226;2023-09-30T12:16:16;20.90;99.90
75442;DHT22;64019;48.312;14.226;2023-09-30T12:28:48;21.10;99.90
75442;DHT22;64019;48.312;14.226;2023-09-30T12:31:14;20.90;99.90
75442;DHT22;64019;48.312;14.226;2023-09-30T12:33:40;20.90;99.90
75442;DHT22;64019;48.312;14.226;2023-09-30T12:36:25;21.00;99.90
75442;DHT22;64019;48.312;14.226;2023-09-30T12:39:29;21.00;99.90
75442;DHT22;64019;48.312;14.226;2023-09-30T12:42:20;20.90;99.90
75442;DHT22;64019;48.312;14.226;2023-09-30T12:44:57;20.90;99.90
75442;DHT22;64019;48.312;14.226;2023-09-30T12:47:58;20.90;99.90
75442;DHT22;64019;48.312;14.226;2023-09-30T12:50:28;20.90;99.90
75442;DHT22;64019;48.312;14.226;2023-09-30T12:53:07;20.90;99.90
75442;DHT22;64019;48.312;14.226;2023-09-30T12:55:46;20.90;99.90
75442;DHT22;64019;48.312;14.226;2023-09-30T12:58:27;20.80;99.90
75442;DHT22;64019;48.312;14.226;2023-09-30T13:00:56;20.80;99.90
75442;DHT22;64019;48.312;14.226;2023-09-30T13:03:25;20.80;99.90
75442;DHT22;64019;48.312;14.226;2023-09-30T13:06:01;20.80;99.90
75442;DHT22;64019;48.312;14.226;2023-09-30T13:08:31;20.80;99.90
75442;DHT22;64019;48.312;14.226;2023-09-30T13:11:02;20.80;99.90
75442;DHT22;64019;48.312;14.226;2023-09-30T13:13:29;20.90;99.90
75442;DHT22;64019;48.312;14.226;2023-09-30T13:15:59;20.90;99.90
75442;DHT22;64019;48.312;14.226;2023-09-30T13:18:25;20.90;99.90
75442;DHT22;64019;48.312;14.226;2023-09-30T13:20:53;21.00;99.90
75442;DHT22;64019;48.312;14.226;2023-09-30T13:23:23;21.00;99.90
75442;DHT22;64019;48.312;14.226;2023-09-30T13:25:53;21.10;99.90
75442;DHT22;64019;48.312;14.226;2023-09-30T13:28:19;21.10;99.90
75442;DHT22;64019;48.312;14.226;2023-09-30T13:30:45;21.10;99.90
75442;DHT22;64019;48.312;14.226;2023-09-30T13:33:11;21.10;99.90
75442;DHT22;64019;48.312;14.226;2023-09-30T13:35:37;21.10;99.90
75442;DHT22;64019;48.312;14.226;2023-09-30T13:38:03;21.10;99.90
75442;DHT22;64019;48.312;14.226;2023-09-30T13:40:29;21.10;99.90
75442;DHT22;64019;48.312;14.226;2023-09-30T13:42:55;21.20;99.90
75442;DHT22;64019;48.312;14.226;2023-09-30T13:45:22;21.10;99.90
75442;DHT22;64019;48.312;14.226;2023-09-30T13:47:48;21.00;99.90
75442;DHT22;64019;48.312;14.226;2023-09-30T13:50:14;21.10;99.90
75442;DHT22;64019;48.312;14.226;2023-09-30T13:52:39;21.10;99.90
75442;DHT22;64019;48.312;14.226;2023-09-30T13:55:05;21.10;99.90
75442;DHT22;64019;48.312;14.226;2023-09-30T13:57:31;21.10;99.90
75442;DHT22;64019;48.312;14.226;2023-09-30T13:59:57;21.10;99.90
75442;DHT22;64019;48.312;14.226;2023-09-30T14:02:23;21.10;99.90
75442;DHT22;64019;48.312;14.226;2023-09-30T14:04:49;21.00;99.90
75442;DHT22;64019;48.312;14.226;2023-09-30T14:07:14;20.90;99.90
75442;DHT22;64019;48.312;14.226;2023-09-30T14:09:40;20.90;99.90
75442;DHT22;64019;48.312;14.226;2023-09-30T14:12:06;20.80;99.90
75442;DHT22;64019;48.312;14.226;2023-09-30T14:14:33;20.80;99.90
75442;DHT22;64019;48.312;14.226;2023-09-30T14:17:02;20.90;99.90
75442;DHT22;64019;48.312;14.226;2023-09-30T14:19:37;20.90;99.90
75442;DHT22;64019;48.312;14.226;2023-09-30T14:22:03;20.90;99.90
75442;DHT22;64019;48.312;14.226;2023-09-30T14:24:33;20.90;99.90
75442;DHT22;64019;48.312;14.226;2023-09-30T14:27:00;20.90;99.90
75442;DHT22;64019;48.312;14.226;2023-09-30T14:29:26;20.90;99.90
75442;DHT22;64019;48.312;14.226;2023-09-30T14:31:52;20.90;99.90
75442;DHT22;64019;48.312;14.226;2023-09-30T14:34:17;20.90;99.90
75442;DHT22;64019;48.312;14.226;2023-09-30T14:36:43;20.90;99.90
75442;DHT22;64019;48.312;14.226;2023-09-30T14:39:10;20.90;99.90
75442;DHT22;64019;48.312;14.226;2023-09-30T14:41:35;20.90;99.90
75442;DHT22;64019;48.312;14.226;2023-09-30T14:44:01;20.80;99.90
75442;DHT22;64019;48.312;14.226;2023-09-30T14:46:29;20.80;99.90
75442;DHT22;64019;48.312;14.226;2023-09-30T14:48:54;20.70;99.90
75442;DHT22;64019;48.312;14.226;2023-09-30T14:51:23;20.70;99.90
75442;DHT22;64019;48.312;14.226;2023-09-30T14:53:49;20.70;99.90
75442;DHT22;64019;48.312;14.226;2023-09-30T14:56:18;20.70;99.90
75442;DHT22;64019;48.312;14.226;2023-09-30T14:58:44;20.70;99.90
75442;DHT22;64019;48.312;14.226;2023-09-30T15:01:10;20.70;99.90
75442;DHT22;64019;48.312;14.226;2023-09-30T15:03:36;20.70;99.90
75442;DHT22;64019;48.312;14.226;2023-09-30T15:06:04;20.50;99.90
75442;DHT22;64019;48.312;14.226;2023-09-30T15:08:31;20.40;99.90
75442;DHT22;64019;48.312;14.226;2023-09-30T15:11:00;20.40;99.90
75442;DHT22;64019;48.312;14.226;2023-09-30T15:13:27;20.30;99.90
75442;DHT22;64019;48.312;14.226;2023-09-30T15:15:52;20.30;99.90
75442;DHT22;64019;48.312;14.226;2023-09-30T15:18:18;20.30;99.90
75442;DHT22;64019;48.312;14.226;2023-09-30T15:20:44;20.30;99.90
75442;DHT22;64019;48.312;14.226;2023-09-30T15:23:10;20.20;99.90
75442;DHT22;64019;48.312;14.226;2023-09-30T15:25:43;20.20;99.90
75442;DHT22;64019;48.312;14.226;2023-09-30T15:28:09;20.20;99.90
75442;DHT22;64019;48.312;14.226;2023-09-30T15:30:35;20.10;99.90
75442;DHT22;64019;48.312;14.226;2023-09-30T15:33:01;20.10;99.90
75442;DHT22;64019;48.312;14.226;2023-09-30T15:35:28;20.10;99.90
75442;DHT22;64019;48.312;14.226;2023-09-30T15:37:53;20.00;99.90
75442;DHT22;64019;48.312;14.226;2023-09-30T15:40:19;19.90;99.90
75442;DHT22;64019;48.312;14.226;2023-09-30T15:42:45;19.90;99.90
75442;DHT22;64019;48.312;14.226;2023-09-30T15:45:12;19.90;99.90
75442;DHT22;64019;48.312;14.226;2023-09-30T15:47:38;19.80;99.90